createdAt,value
2019-04-06T00:03:17.832Z,89.06
2019-04-06T00:05:48.149Z,89.34
2019-04-06T00:08:18.185Z,90.31
2019-04-06T00:13:27.954Z,90.92
2019-04-06T00:15:58.006Z,91.04
2019-04-06T00:18:28.052Z,90.97
2019-04-06T00:23:37.437Z,91.18
2019-04-06T00:28:47.242Z,91.34
2019-04-06T00:31:17.273Z,91.42
2019-04-06T00:33:47.305Z,91.17
2019-04-06T00:38:56.980Z,91.65
2019-04-06T00:44:06.386Z,92.43
2019-04-06T00:49:16.095Z,92.88
2019-04-06T00:54:25.758Z,92.95
2019-04-06T00:59:35.189Z,93.16
2019-04-06T01:04:44.583Z,93.47
2019-04-06T01:09:53.982Z,93.46
2019-04-06T01:12:24.030Z,93.64
2019-04-06T01:14:54.059Z,93.67
2019-04-06T01:22:42.832Z,93.30
2019-04-06T01:27:52.537Z,93.72
2019-04-06T01:30:22.765Z,93.90
2019-04-06T01:32:52.814Z,94.07
2019-04-06T01:38:02.542Z,93.49
2019-04-06T01:40:32.554Z,94.32
2019-04-06T01:45:41.964Z,95.00
2019-04-06T01:48:12.305Z,95.32
2019-04-06T01:50:42.651Z,95.41
2019-04-06T01:53:12.717Z,95.52
2019-04-06T01:55:42.742Z,95.67
2019-04-06T02:00:52.443Z,95.78
2019-04-06T02:03:22.489Z,95.54
2019-04-06T02:11:11.544Z,95.74
2019-04-06T02:13:41.868Z,96.09
2019-04-06T02:18:51.640Z,95.67
2019-04-06T02:21:21.666Z,96.38
2019-04-06T02:23:51.694Z,96.27
2019-04-06T02:29:01.211Z,96.85
2019-04-06T02:31:31.176Z,97.13
2019-04-06T02:34:01.194Z,97.10
2019-04-06T02:39:10.936Z,97.32
2019-04-06T02:44:20.478Z,97.31
2019-04-06T02:49:29.781Z,97.44
2019-04-06T02:54:39.903Z,96.98
2019-04-06T02:59:49.533Z,97.08
2019-04-06T03:07:38.619Z,96.91
2019-04-06T03:10:09.134Z,97.30
2019-04-06T03:15:18.407Z,96.67
2019-04-06T03:20:28.175Z,96.52
2019-04-06T03:22:58.210Z,96.62
2019-04-06T03:28:07.609Z,95.89
2019-04-06T03:33:17.305Z,96.60
2019-04-06T03:35:49.349Z,96.19
2019-04-06T03:38:17.382Z,96.39
2019-04-06T03:43:27.077Z,96.17
2019-04-06T03:45:57.104Z,95.98
2019-04-06T03:48:27.143Z,95.99
2019-04-06T03:50:57.185Z,95.67
2019-04-06T03:53:27.537Z,95.01
2019-04-06T04:01:16.579Z,95.22
2019-04-06T04:03:46.617Z,94.92
2019-04-06T04:06:16.650Z,94.75
2019-04-06T04:11:26.061Z,95.22
2019-04-06T04:16:35.442Z,94.85
2019-04-06T04:21:45.139Z,95.08
2019-04-06T04:24:15.192Z,95.88
2019-04-06T04:29:24.929Z,94.95
2019-04-06T04:34:34.494Z,95.25
2019-04-06T04:37:04.531Z,95.40
2019-04-06T04:47:32.981Z,94.60
2019-04-06T04:50:03.505Z,94.93
2019-04-06T04:52:33.630Z,94.96
2019-04-06T04:57:45.067Z,94.64
2019-04-06T05:00:13.077Z,94.72
2019-04-06T05:05:22.788Z,94.52
2019-04-06T05:07:52.833Z,95.20
2019-04-06T05:10:23.210Z,95.40
2019-04-06T05:12:53.562Z,95.34
2019-04-06T05:20:42.288Z,95.20
2019-04-06T05:23:12.165Z,95.04
2019-04-06T05:25:42.562Z,94.63
2019-04-06T05:28:12.616Z,93.90
2019-04-06T05:33:22.023Z,93.72
2019-04-06T05:35:52.340Z,93.40
2019-04-06T05:38:22.650Z,93.23
2019-04-06T05:40:52.772Z,93.20
2019-04-06T05:43:22.817Z,93.47
2019-04-06T05:48:32.532Z,93.53
2019-04-06T05:51:02.708Z,93.07
2019-04-06T05:53:32.588Z,92.68
2019-04-06T05:56:02.632Z,92.82
2019-04-06T05:58:32.685Z,91.95
2019-04-06T06:01:04.102Z,91.85
2019-04-06T06:03:33.163Z,92.49
2019-04-06T06:08:42.554Z,92.54
2019-04-06T06:11:12.916Z,92.49
2019-04-06T06:13:43.242Z,92.56
2019-04-06T06:18:52.894Z,91.90
2019-04-06T06:24:02.290Z,93.43
2019-04-06T06:29:11.680Z,93.27
2019-04-06T06:34:21.056Z,92.91
2019-04-06T06:39:30.455Z,92.07
2019-04-06T06:44:40.086Z,90.90
2019-04-06T06:49:49.552Z,91.01
2019-04-06T06:52:19.576Z,91.55
2019-04-06T06:54:49.945Z,92.20
2019-04-06T06:57:20.008Z,92.40
2019-04-06T07:02:30.011Z,92.38
2019-04-06T07:05:00.346Z,91.87
2019-04-06T07:07:30.372Z,90.24
2019-04-06T07:10:05.948Z,89.19
2019-04-06T07:12:31.048Z,89.30
2019-04-06T07:15:01.086Z,90.09
2019-04-06T07:17:31.467Z,89.91
2019-04-06T07:20:01.626Z,89.94
2019-04-06T07:22:31.891Z,90.60
2019-04-06T07:25:01.957Z,91.06
2019-04-06T07:27:32.237Z,90.28
2019-04-06T07:30:02.293Z,90.30
2019-04-06T07:32:32.416Z,91.41
2019-04-06T07:35:02.457Z,89.78
2019-04-06T07:37:32.856Z,88.87
2019-04-06T07:42:42.766Z,88.80
2019-04-06T07:45:12.807Z,88.98
2019-04-06T07:47:43.130Z,88.51
2019-04-06T07:50:13.538Z,87.88
2019-04-06T07:52:43.879Z,87.96
2019-04-06T07:55:13.947Z,89.18
2019-04-06T07:57:44.327Z,88.13
2019-04-06T08:00:14.740Z,88.20
2019-04-06T08:02:44.911Z,87.54
2019-04-06T08:05:14.803Z,87.83
2019-04-06T08:07:45.177Z,87.90
2019-04-06T08:10:15.501Z,87.98
2019-04-06T08:12:45.547Z,86.49
2019-04-06T08:15:15.964Z,87.05
2019-04-06T08:17:46.012Z,86.37
2019-04-06T08:20:16.077Z,86.46
2019-04-06T08:22:46.080Z,85.80
2019-04-06T08:25:16.116Z,85.81
2019-04-06T08:27:46.421Z,85.71
2019-04-06T08:30:16.471Z,85.73
2019-04-06T08:32:46.527Z,85.84
2019-04-06T08:35:25.427Z,85.29
2019-04-06T08:37:46.614Z,84.63
2019-04-06T08:40:16.642Z,84.29
2019-04-06T08:42:46.965Z,83.21
2019-04-06T08:45:17.007Z,82.80
2019-04-06T08:47:47.076Z,82.36
2019-04-06T08:50:17.105Z,81.00
2019-04-06T08:52:47.596Z,79.51
2019-04-06T08:57:56.975Z,80.10
2019-04-06T09:00:26.934Z,79.85
2019-04-06T09:05:36.321Z,80.39
2019-04-06T09:08:06.787Z,79.85
2019-04-06T09:10:37.090Z,78.74
2019-04-06T09:13:07.132Z,78.68
2019-04-06T09:15:37.503Z,78.59
2019-04-06T09:18:07.533Z,78.40
2019-04-06T09:20:37.590Z,77.52
2019-04-06T09:23:07.623Z,77.07
2019-04-06T09:25:37.657Z,77.32
2019-04-06T09:28:08.165Z,77.72
2019-04-06T09:33:17.469Z,78.11
2019-04-06T09:35:47.924Z,77.31
2019-04-06T09:38:18.098Z,77.16
2019-04-06T09:40:50.960Z,77.86
2019-04-06T09:43:21.210Z,76.41
2019-04-06T09:45:51.617Z,76.69
2019-04-06T09:48:21.657Z,76.72
2019-04-06T09:50:51.770Z,77.89
2019-04-06T09:53:21.773Z,78.59
2019-04-06T09:55:51.858Z,78.71
2019-04-06T09:58:21.888Z,78.17
2019-04-06T10:06:11.311Z,77.35
2019-04-06T10:08:41.343Z,77.51
2019-04-06T10:11:11.740Z,76.72
2019-04-06T10:19:00.530Z,76.84
2019-04-06T10:21:30.841Z,76.44
2019-04-06T10:24:01.162Z,76.90
2019-04-06T10:26:31.225Z,76.21
2019-04-06T10:29:01.264Z,75.17
2019-04-06T10:31:31.587Z,74.99
2019-04-06T10:34:01.400Z,75.62
2019-04-06T10:36:32.151Z,74.28
2019-04-06T10:39:02.058Z,72.91
2019-04-06T10:41:32.113Z,72.81
2019-04-06T10:44:02.174Z,70.79
2019-04-06T10:46:32.222Z,71.06
2019-04-06T10:49:02.260Z,71.78
2019-04-06T10:51:32.696Z,71.46
2019-04-06T10:54:03.052Z,69.38
2019-04-06T10:56:32.770Z,69.01
2019-04-06T11:01:42.194Z,69.38
2019-04-06T11:09:31.373Z,67.73
2019-04-06T11:12:01.792Z,63.07
2019-04-06T11:14:32.179Z,61.45
2019-04-06T11:17:02.434Z,56.55
2019-04-06T11:19:32.765Z,58.67
2019-04-06T11:22:02.818Z,59.77
2019-04-06T11:24:32.858Z,58.92
2019-04-06T11:27:02.952Z,60.72
2019-04-06T11:29:32.994Z,59.24
2019-04-06T11:34:42.422Z,56.90
2019-04-06T11:37:12.797Z,57.17
2019-04-06T11:39:42.835Z,57.73
2019-04-06T11:44:52.867Z,56.66
2019-04-06T11:47:23.135Z,56.50
2019-04-06T11:57:51.824Z,53.15
2019-04-06T12:00:26.569Z,53.72
2019-04-06T12:05:31.633Z,53.83
2019-04-06T12:10:41.355Z,53.13
2019-04-06T12:21:09.827Z,51.92
2019-04-06T12:23:39.858Z,53.27
2019-04-06T12:26:09.913Z,51.60
2019-04-06T12:31:19.619Z,49.82
2019-04-06T12:33:49.965Z,51.02
2019-04-06T12:36:20.623Z,51.12
2019-04-06T12:41:30.702Z,52.16
2019-04-06T12:44:00.738Z,50.22
2019-04-06T12:46:31.043Z,50.15
2019-04-06T12:49:01.084Z,51.44
2019-04-06T12:51:31.140Z,51.78
2019-04-06T12:59:21.098Z,49.72
2019-04-06T13:01:51.318Z,50.34
2019-04-06T13:04:21.126Z,50.56
2019-04-06T13:09:30.884Z,50.93
2019-04-06T13:14:40.627Z,50.60
2019-04-06T13:19:50.676Z,49.75
2019-04-06T13:27:39.242Z,48.08
2019-04-06T13:30:09.606Z,46.82
2019-04-06T13:32:39.358Z,46.53
2019-04-06T13:35:09.425Z,47.18
2019-04-06T13:40:19.398Z,47.88
2019-04-06T13:45:29.071Z,46.93
2019-04-06T13:50:39.353Z,46.00
2019-04-06T13:58:28.171Z,47.06
2019-04-06T14:00:58.531Z,46.14
2019-04-06T14:03:28.907Z,46.71
2019-04-06T14:11:17.912Z,44.83
2019-04-06T14:13:47.958Z,47.48
2019-04-06T14:18:57.934Z,46.41
2019-04-06T14:21:28.316Z,46.15
2019-04-06T14:23:58.259Z,46.54
2019-04-06T14:26:28.347Z,45.97
2019-04-06T14:28:58.421Z,45.22
2019-04-06T14:31:30.344Z,46.18
2019-04-06T14:36:38.378Z,46.22
2019-04-06T14:41:47.817Z,47.38
2019-04-06T14:44:17.821Z,45.48
2019-04-06T14:46:48.173Z,45.90
2019-04-06T14:49:29.405Z,46.50
2019-04-06T14:54:28.053Z,45.53
2019-04-06T14:59:37.319Z,46.18
2019-04-06T15:02:07.741Z,44.90
2019-04-06T15:04:37.978Z,45.17
2019-04-06T15:07:11.491Z,45.32
2019-04-06T15:09:38.206Z,45.69
2019-04-06T15:12:08.612Z,46.25
2019-04-06T15:14:38.936Z,45.17
2019-04-06T15:17:08.951Z,46.17
2019-04-06T15:19:39.010Z,46.14
2019-04-06T15:22:09.055Z,46.73
2019-04-06T15:24:39.372Z,47.23
2019-04-06T15:27:09.395Z,46.43
2019-04-06T15:29:39.810Z,47.31
2019-04-06T15:32:09.998Z,47.26
2019-04-06T15:34:39.901Z,47.39
2019-04-06T15:37:09.929Z,47.69
2019-04-06T15:44:58.954Z,49.01
2019-04-06T15:50:08.631Z,49.11
2019-04-06T15:57:57.438Z,50.57
2019-04-06T16:00:27.766Z,51.01
2019-04-06T16:08:16.888Z,52.61
2019-04-06T16:10:46.947Z,51.97
2019-04-06T16:15:56.607Z,52.72
2019-04-06T16:18:26.984Z,53.15
2019-04-06T16:20:58.436Z,53.64
2019-04-06T16:23:26.989Z,53.57
2019-04-06T16:31:16.014Z,54.35
2019-04-06T16:33:46.077Z,54.99
2019-04-06T16:38:56.033Z,54.86
2019-04-06T16:44:05.224Z,54.90
2019-04-06T16:49:14.624Z,55.74
2019-04-06T16:54:24.545Z,55.86
2019-04-06T16:59:33.782Z,56.26
2019-04-06T17:04:42.845Z,57.11
2019-04-06T17:09:53.229Z,57.39
2019-04-06T17:17:41.974Z,58.33
2019-04-06T17:20:12.450Z,59.07
2019-04-06T17:22:42.034Z,59.15
2019-04-06T17:30:31.480Z,60.10
2019-04-06T17:33:01.620Z,60.60
2019-04-06T17:38:10.628Z,61.33
2019-04-06T17:40:41.208Z,60.57
2019-04-06T17:53:49.131Z,59.68
2019-04-06T17:56:19.188Z,59.37
2019-04-06T18:01:28.691Z,60.86
2019-04-06T18:03:59.857Z,60.69
2019-04-06T18:09:08.500Z,61.62
2019-04-06T18:14:18.980Z,63.15
2019-04-06T18:19:31.573Z,64.05
2019-04-06T18:22:01.218Z,64.24
2019-04-06T18:24:31.285Z,64.32
2019-04-06T18:29:41.064Z,65.33
2019-04-06T18:32:10.741Z,65.26
2019-04-06T18:34:41.389Z,65.28
2019-04-06T18:37:11.235Z,65.49
2019-04-06T18:39:40.985Z,65.75
2019-04-06T18:42:11.820Z,66.12
2019-04-06T18:44:41.886Z,65.93
2019-04-06T18:47:11.797Z,66.22
2019-04-06T18:49:42.412Z,65.97
2019-04-06T18:52:12.270Z,66.10
2019-04-06T18:54:42.503Z,66.05
2019-04-06T18:59:52.646Z,65.33
2019-04-06T19:02:22.570Z,65.89
2019-04-06T19:04:52.482Z,66.09
2019-04-06T19:07:22.624Z,65.48
2019-04-06T19:09:52.803Z,65.43
2019-04-06T19:12:22.834Z,65.56
2019-04-06T19:14:53.247Z,65.75
2019-04-06T19:17:23.604Z,66.25
2019-04-06T19:19:53.856Z,66.21
2019-04-06T19:22:24.007Z,66.44
2019-04-06T19:24:53.755Z,66.65
2019-04-06T19:27:23.875Z,66.02
2019-04-06T19:29:54.242Z,65.93
2019-04-06T19:32:24.278Z,66.03
2019-04-06T19:34:54.312Z,65.97
2019-04-06T19:40:03.951Z,64.58
2019-04-06T19:42:34.360Z,65.54
2019-04-06T19:45:04.585Z,65.61
2019-04-06T19:47:34.463Z,66.45
2019-04-06T19:52:44.192Z,67.04
2019-04-06T19:55:14.010Z,67.32
2019-04-06T19:57:44.121Z,67.67
2019-04-06T20:00:14.502Z,67.84
2019-04-06T20:02:44.823Z,68.27
2019-04-06T20:07:54.774Z,68.46
2019-04-06T20:10:24.836Z,68.72
2019-04-06T20:12:54.866Z,69.10
2019-04-06T20:20:45.214Z,69.37
2019-04-06T20:25:54.332Z,69.28
2019-04-06T20:28:24.673Z,69.29
2019-04-06T20:30:54.494Z,69.70
2019-04-06T20:33:24.864Z,69.43
2019-04-06T20:35:55.358Z,69.37
2019-04-06T20:38:25.274Z,70.07
2019-04-06T20:40:55.322Z,70.06
2019-04-06T20:43:25.631Z,70.02
2019-04-06T20:45:55.668Z,70.28
2019-04-06T20:48:25.773Z,70.18
2019-04-06T20:50:56.318Z,70.39
2019-04-06T20:53:26.112Z,70.51
2019-04-06T20:55:56.456Z,70.53
2019-04-06T21:01:05.609Z,70.42
2019-04-06T21:06:14.988Z,70.14
2019-04-06T21:08:45.915Z,70.42
2019-04-06T21:11:15.404Z,70.25
2019-04-06T21:16:24.834Z,70.53
2019-04-06T21:21:34.691Z,69.90
2019-04-06T21:24:04.699Z,70.16
2019-04-06T21:26:35.016Z,70.80
2019-04-06T21:31:44.742Z,69.70
2019-04-06T21:34:16.781Z,71.02
2019-04-06T21:39:24.549Z,71.73
2019-04-06T21:41:54.584Z,71.66
2019-04-06T21:44:24.633Z,72.35
2019-04-06T21:49:34.443Z,72.32
2019-04-06T21:54:43.877Z,72.95
2019-04-06T21:59:53.517Z,73.09
2019-04-06T22:02:24.092Z,72.85
2019-04-06T22:04:53.577Z,71.09
2019-04-06T22:07:24.249Z,70.49
2019-04-06T22:09:53.714Z,70.31
2019-04-06T22:12:23.932Z,70.39
2019-04-06T22:14:54.236Z,70.91
2019-04-06T22:17:24.406Z,71.02
2019-04-06T22:19:54.180Z,70.15
2019-04-06T22:22:24.820Z,70.03
2019-04-06T22:24:54.298Z,70.08
2019-04-06T22:27:24.335Z,69.70
2019-04-06T22:29:54.761Z,69.88
2019-04-06T22:32:25.538Z,70.14
2019-04-06T22:34:55.681Z,70.49
2019-04-06T22:37:25.596Z,70.29
2019-04-06T22:39:55.292Z,70.07
2019-04-06T22:42:25.322Z,70.28
2019-04-06T22:44:55.945Z,70.00
2019-04-06T22:47:25.404Z,70.40
2019-04-06T22:49:55.904Z,71.05
2019-04-06T22:52:25.489Z,70.83
2019-04-06T22:54:55.919Z,71.20
2019-04-06T22:57:26.139Z,71.37
2019-04-06T22:59:56.386Z,71.56
2019-04-06T23:02:26.232Z,71.92
2019-04-06T23:04:56.279Z,71.29
2019-04-06T23:07:27.014Z,71.88
2019-04-06T23:09:56.351Z,71.47
2019-04-06T23:12:26.749Z,72.07
2019-04-06T23:14:56.846Z,72.40
2019-04-06T23:17:27.352Z,72.48
2019-04-06T23:19:57.796Z,72.56
2019-04-06T23:22:27.638Z,72.23
2019-04-06T23:24:58.029Z,72.24
2019-04-06T23:27:28.073Z,72.35
2019-04-06T23:29:58.765Z,72.64
2019-04-06T23:32:28.125Z,72.87
2019-04-06T23:35:01.851Z,72.98
2019-04-06T23:40:08.366Z,72.88
2019-04-06T23:42:38.827Z,72.32
2019-04-06T23:45:08.375Z,72.60
2019-04-06T23:47:38.765Z,71.90
2019-04-06T23:50:08.786Z,72.54
2019-04-06T23:52:39.178Z,73.51
2019-04-06T23:55:09.480Z,73.77
2019-04-06T23:57:40.093Z,74.06
